Time;durP1;ratioP1;P1;durP2;ratioP2;P2;SDS_P1;SDS_P2;PMS_P1;PMS_P2;Temp;Humidity;BMP_temperature;BMP_pressure;BME280_temperature;BME280_humidity;BME280_pressure;Samples;Min_cycle;Max_cycle;Signal;HPM_P1;HPM_P2
2022/07/16 00:01:50;;;;;;;;;;;19.80;93.80;;;;;;5085138;28;20001;-82
2022/07/16 00:04:15;;;;;;;;;;;19.70;94.20;;;;;;5096509;28;20375;-80
2022/07/16 00:06:43;;;;;;;;;;;19.70;94.00;;;;;;5096722;28;20295;-80
2022/07/16 00:09:09;;;;;;;;;;;19.70;93.40;;;;;;5096434;28;20019;-80
2022/07/16 00:11:35;;;;;;;;;;;19.60;93.30;;;;;;5096162;28;20391;-81
2022/07/16 00:14:00;;;;;;;;;;;19.60;93.30;;;;;;5096536;28;19909;-81
2022/07/16 00:16:26;;;;;;;;;;;19.70;92.80;;;;;;5096267;28;19908;-80
2022/07/16 00:21:36;;;;;;;;;;;19.80;92.90;;;;;;5095941;28;20580;-82
2022/07/16 00:24:01;;;;;;;;;;;19.50;94.10;;;;;;5096385;28;19908;-83
2022/07/16 00:26:27;;;;;;;;;;;19.10;96.00;;;;;;5096829;28;19934;-81
2022/07/16 00:28:52;;;;;;;;;;;18.90;98.60;;;;;;5096055;28;19912;-81
2022/07/16 00:31:18;;;;;;;;;;;18.70;99.90;;;;;;5095819;28;20375;-81
2022/07/16 00:33:44;;;;;;;;;;;18.70;99.90;;;;;;5096139;28;19909;-81
2022/07/16 00:36:09;;;;;;;;;;;18.80;99.80;;;;;;5096274;28;19964;-80
2022/07/16 00:38:35;;;;;;;;;;;18.90;99.00;;;;;;5096023;28;19916;-81
2022/07/16 00:41:01;;;;;;;;;;;19.00;97.90;;;;;;5095317;28;20368;-81
2022/07/16 00:43:26;;;;;;;;;;;19.20;96.90;;;;;;5095955;28;19908;-81
2022/07/16 00:45:52;;;;;;;;;;;19.30;96.00;;;;;;5096030;28;19908;-81
2022/07/16 00:48:17;;;;;;;;;;;19.20;96.20;;;;;;5095669;28;20376;-82
2022/07/16 00:50:43;;;;;;;;;;;19.00;96.60;;;;;;5095788;28;19908;-81
2022/07/16 00:53:09;;;;;;;;;;;19.10;96.20;;;;;;5095326;28;19931;-81
2022/07/16 00:55:35;;;;;;;;;;;19.10;95.80;;;;;;5094790;28;19908;-81
2022/07/16 00:58:01;;;;;;;;;;;19.20;95.80;;;;;;5095733;28;19998;-82
2022/07/16 01:00:26;;;;;;;;;;;19.00;96.40;;;;;;5095572;28;19908;-81
2022/07/16 01:02:52;;;;;;;;;;;18.90;96.60;;;;;;5095262;28;19961;-81
2022/07/16 01:05:19;;;;;;;;;;;18.90;96.60;;;;;;5095237;28;19915;-81
2022/07/16 01:07:44;;;;;;;;;;;18.90;96.30;;;;;;5095462;28;20422;-82
2022/07/16 01:10:10;;;;;;;;;;;18.90;96.20;;;;;;5077284;28;19908;-81
2022/07/16 01:12:36;;;;;;;;;;;19.00;95.70;;;;;;5094683;28;19908;-81
2022/07/16 01:15:02;;;;;;;;;;;19.00;96.30;;;;;;5095249;28;20376;-82
2022/07/16 01:17:28;;;;;;;;;;;18.90;96.10;;;;;;5094974;28;19912;-82
2022/07/16 01:19:53;;;;;;;;;;;18.80;96.80;;;;;;5095302;28;20369;-82
2022/07/16 01:22:20;;;;;;;;;;;18.80;96.70;;;;;;5076571;28;20319;-80
2022/07/16 01:24:46;;;;;;;;;;;18.80;96.50;;;;;;5095790;28;19909;-82
2022/07/16 01:27:11;;;;;;;;;;;18.80;96.90;;;;;;5076983;28;20265;-81
2022/07/16 01:29:37;;;;;;;;;;;18.80;96.90;;;;;;5094857;28;19916;-80
2022/07/16 01:32:02;;;;;;;;;;;18.60;97.50;;;;;;5094663;28;20376;-82
2022/07/16 01:34:28;;;;;;;;;;;18.40;99.10;;;;;;5094931;28;19960;-81
2022/07/16 01:36:55;;;;;;;;;;;18.40;99.70;;;;;;5094903;28;19915;-81
2022/07/16 01:39:21;;;;;;;;;;;18.30;99.60;;;;;;5076657;28;19908;-82
2022/07/16 01:41:51;;;;;;;;;;;18.30;99.80;;;;;;5094250;28;20017;-80
2022/07/16 01:44:16;;;;;;;;;;;18.20;99.90;;;;;;5094825;28;19931;-81
2022/07/16 01:46:42;;;;;;;;;;;18.20;99.90;;;;;;5094698;28;20387;-80
2022/07/16 01:49:08;;;;;;;;;;;18.20;99.90;;;;;;5076461;28;19915;-80
2022/07/16 01:51:33;;;;;;;;;;;18.30;99.90;;;;;;5094326;28;19935;-82
2022/07/16 01:53:59;;;;;;;;;;;18.40;99.90;;;;;;5094667;28;19999;-82
2022/07/16 01:56:24;;;;;;;;;;;18.20;99.80;;;;;;5094580;28;20283;-82
2022/07/16 01:58:50;;;;;;;;;;;18.00;99.90;;;;;;5094443;28;19908;-81
2022/07/16 02:01:16;;;;;;;;;;;18.00;99.90;;;;;;5094263;28;20427;-83
2022/07/16 02:03:41;;;;;;;;;;;17.90;99.90;;;;;;5094258;28;19908;-82
2022/07/16 02:06:07;;;;;;;;;;;17.80;99.90;;;;;;5094280;28;19912;-81
2022/07/16 02:08:32;;;;;;;;;;;17.70;99.90;;;;;;5094255;28;19912;-81
2022/07/16 02:10:58;;;;;;;;;;;17.80;99.90;;;;;;5094268;28;19930;-82
2022/07/16 02:13:23;;;;;;;;;;;17.80;99.90;;;;;;5093776;28;20007;-82
2022/07/16 02:15:49;;;;;;;;;;;17.80;99.90;;;;;;5094050;28;19944;-81
2022/07/16 02:18:15;;;;;;;;;;;17.80;99.90;;;;;;5094145;28;19908;-81
2022/07/16 02:20:40;;;;;;;;;;;17.90;99.90;;;;;;5094016;28;20000;-82
2022/07/16 02:23:06;;;;;;;;;;;17.80;99.90;;;;;;5093536;28;19961;-82
2022/07/16 02:25:31;;;;;;;;;;;17.70;99.90;;;;;;5094635;28;19915;-80
2022/07/16 02:28:06;;;;;;;;;;;17.50;99.90;;;;;;5093713;28;20276;-80
2022/07/16 02:30:32;;;;;;;;;;;17.50;99.90;;;;;;5093972;28;19994;-82
2022/07/16 02:32:58;;;;;;;;;;;17.40;99.90;;;;;;5079600;28;19986;-82
2022/07/16 02:35:23;;;;;;;;;;;17.30;99.90;;;;;;5073569;28;19943;-81
2022/07/16 02:37:49;;;;;;;;;;;17.30;99.90;;;;;;5055590;28;20284;-82
2022/07/16 02:40:14;;;;;;;;;;;17.40;99.90;;;;;;5055493;28;19915;-82
2022/07/16 02:42:40;;;;;;;;;;;17.40;99.90;;;;;;5083912;28;20019;-81
2022/07/16 02:45:07;;;;;;;;;;;17.40;99.90;;;;;;5093719;28;20331;-80
2022/07/16 02:47:33;;;;;;;;;;;17.40;99.90;;;;;;5075669;28;20023;-81
2022/07/16 02:49:59;;;;;;;;;;;17.40;99.90;;;;;;5093584;28;20384;-81
2022/07/16 02:52:24;;;;;;;;;;;17.40;99.90;;;;;;5093318;28;19931;-81
2022/07/16 02:54:50;;;;;;;;;;;17.30;99.90;;;;;;5093572;28;19915;-80
2022/07/16 02:57:16;;;;;;;;;;;17.30;99.90;;;;;;5093789;28;20352;-80
2022/07/16 02:59:41;;;;;;;;;;;17.40;99.90;;;;;;5093577;28;19912;-81
2022/07/16 03:02:07;;;;;;;;;;;17.40;99.90;;;;;;5093100;28;20398;-80
2022/07/16 03:04:32;;;;;;;;;;;17.20;99.90;;;;;;5093286;28;19961;-81
2022/07/16 03:06:58;;;;;;;;;;;17.30;99.90;;;;;;5093691;28;20280;-81
2022/07/16 03:09:24;;;;;;;;;;;17.20;99.90;;;;;;5093417;28;19951;-81
2022/07/16 03:11:49;;;;;;;;;;;17.30;99.90;;;;;;5093063;28;20399;-81
2022/07/16 03:14:15;;;;;;;;;;;17.30;99.90;;;;;;5093353;28;19928;-81
2022/07/16 03:16:41;;;;;;;;;;;17.30;99.90;;;;;;5075026;28;19912;-81
2022/07/16 03:19:06;;;;;;;;;;;17.30;99.90;;;;;;5095970;28;19908;-82
2022/07/16 03:21:32;;;;;;;;;;;17.10;99.90;;;;;;5097352;28;19989;-81
2022/07/16 03:23:57;;;;;;;;;;;17.00;99.90;;;;;;5097450;28;19916;-81
2022/07/16 03:26:23;;;;;;;;;;;17.10;99.90;;;;;;5098020;28;19956;-81
2022/07/16 03:28:49;;;;;;;;;;;17.10;99.90;;;;;;5097133;28;19912;-81
2022/07/16 03:31:17;;;;;;;;;;;17.20;99.90;;;;;;5097346;28;19908;-80
2022/07/16 03:33:42;;;;;;;;;;;17.00;99.90;;;;;;5096757;28;20424;-81
2022/07/16 03:36:08;;;;;;;;;;;16.80;99.90;;;;;;5097206;28;19912;-79
2022/07/16 03:41:18;;;;;;;;;;;16.30;99.90;;;;;;5096983;28;19970;-81
2022/07/16 03:43:43;;;;;;;;;;;16.30;99.90;;;;;;5096617;28;19936;-81
2022/07/16 03:46:13;;;;;;;;;;;16.40;99.90;;;;;;5097163;28;19915;-82
2022/07/16 03:48:42;;;;;;;;;;;16.50;99.90;;;;;;5096888;28;19922;-79
2022/07/16 03:51:08;;;;;;;;;;;16.40;99.90;;;;;;5096902;28;19957;-82
2022/07/16 03:53:34;;;;;;;;;;;16.20;99.90;;;;;;5096468;28;19912;-82
2022/07/16 03:55:59;;;;;;;;;;;16.30;99.90;;;;;;5096880;28;19951;-81
2022/07/16 03:58:28;;;;;;;;;;;16.50;99.90;;;;;;5096831;28;19915;-81
2022/07/16 04:00:54;;;;;;;;;;;16.60;99.90;;;;;;5096767;28;19908;-80
2022/07/16 04:03:19;;;;;;;;;;;16.30;99.90;;;;;;5096526;28;20318;-81
2022/07/16 04:05:45;;;;;;;;;;;16.20;99.90;;;;;;5096757;28;19916;-81
2022/07/16 04:08:11;;;;;;;;;;;16.10;99.90;;;;;;5096460;28;19912;-80
2022/07/16 04:10:36;;;;;;;;;;;16.10;99.90;;;;;;5096710;28;19908;-80
2022/07/16 04:13:02;;;;;;;;;;;16.20;99.90;;;;;;5096121;28;20001;-80
2022/07/16 04:15:28;;;;;;;;;;;16.20;99.90;;;;;;5096502;28;19913;-81
2022/07/16 04:17:53;;;;;;;;;;;16.30;99.90;;;;;;5096472;28;19908;-81
2022/07/16 04:20:19;;;;;;;;;;;16.30;99.90;;;;;;5096247;28;19991;-81
2022/07/16 04:22:44;;;;;;;;;;;16.40;99.90;;;;;;5095954;28;20265;-82
2022/07/16 04:25:12;;;;;;;;;;;16.30;99.90;;;;;;5096884;28;19908;-80
2022/07/16 04:27:38;;;;;;;;;;;16.30;99.90;;;;;;5096442;28;19918;-81
2022/07/16 04:30:05;;;;;;;;;;;16.30;99.90;;;;;;5094880;28;19953;-81
2022/07/16 04:32:30;;;;;;;;;;;16.30;99.90;;;;;;5095885;28;19908;-81
2022/07/16 04:34:56;;;;;;;;;;;16.30;99.90;;;;;;5096110;28;19973;-81
2022/07/16 04:37:22;;;;;;;;;;;16.10;99.90;;;;;;5096112;28;19915;-81
2022/07/16 04:39:47;;;;;;;;;;;16.00;99.90;;;;;;5095995;28;19912;-81
2022/07/16 04:42:13;;;;;;;;;;;15.90;99.90;;;;;;5091785;28;19956;-80
2022/07/16 04:44:38;;;;;;;;;;;16.10;99.90;;;;;;5075730;28;19909;-82
2022/07/16 04:47:04;;;;;;;;;;;16.30;99.90;;;;;;5075665;28;19909;-82
2022/07/16 04:49:29;;;;;;;;;;;16.20;99.90;;;;;;5075476;28;19912;-81
2022/07/16 04:51:55;;;;;;;;;;;16.10;99.90;;;;;;5075297;28;19912;-81
2022/07/16 04:54:21;;;;;;;;;;;16.10;99.90;;;;;;5075483;28;19944;-80
2022/07/16 04:56:46;;;;;;;;;;;16.00;99.90;;;;;;5075704;28;19912;-80
2022/07/16 04:59:12;;;;;;;;;;;15.90;99.90;;;;;;5075473;28;19932;-81
2022/07/16 05:01:37;;;;;;;;;;;16.10;99.90;;;;;;5075407;28;19912;-81
2022/07/16 05:04:03;;;;;;;;;;;16.30;99.90;;;;;;5074717;28;20003;-81
2022/07/16 05:06:29;;;;;;;;;;;16.40;99.90;;;;;;5075270;28;19916;-82
2022/07/16 05:08:56;;;;;;;;;;;16.50;99.90;;;;;;5075188;28;19920;-80
2022/07/16 05:11:22;;;;;;;;;;;16.60;99.90;;;;;;5057237;28;19943;-81
2022/07/16 05:13:48;;;;;;;;;;;16.50;99.90;;;;;;5056636;28;19956;-80
2022/07/16 05:16:13;;;;;;;;;;;16.50;99.90;;;;;;5075032;28;19934;-81
2022/07/16 05:18:39;;;;;;;;;;;16.60;99.90;;;;;;5075030;28;20373;-81
2022/07/16 05:21:04;;;;;;;;;;;16.60;99.90;;;;;;5057014;28;19909;-82
2022/07/16 05:23:30;;;;;;;;;;;16.60;99.90;;;;;;5074775;28;19908;-82
2022/07/16 05:25:55;;;;;;;;;;;16.80;99.90;;;;;;5075571;28;19916;-81
2022/07/16 05:28:21;;;;;;;;;;;16.80;99.90;;;;;;5074636;28;19912;-81
2022/07/16 05:30:47;;;;;;;;;;;16.90;99.90;;;;;;5074744;28;20054;-82
2022/07/16 05:33:12;;;;;;;;;;;16.90;99.90;;;;;;5074304;28;19912;-81
2022/07/16 05:35:38;;;;;;;;;;;17.10;99.90;;;;;;5074707;28;19940;-82
2022/07/16 05:38:03;;;;;;;;;;;17.30;99.90;;;;;;5074729;28;19912;-80
2022/07/16 05:40:29;;;;;;;;;;;17.30;99.90;;;;;;5074055;28;19994;-82
2022/07/16 05:42:54;;;;;;;;;;;17.30;99.90;;;;;;5066646;28;19920;-81
2022/07/16 05:45:20;;;;;;;;;;;17.40;99.90;;;;;;5053317;28;19909;-80
2022/07/16 05:47:46;;;;;;;;;;;17.50;99.90;;;;;;5054292;28;19915;-82
2022/07/16 05:50:11;;;;;;;;;;;17.50;99.90;;;;;;5054595;28;20312;-81
2022/07/16 05:52:37;;;;;;;;;;;17.60;99.90;;;;;;5053869;28;19915;-80
2022/07/16 05:55:03;;;;;;;;;;;17.70;99.90;;;;;;5054367;28;19909;-81
2022/07/16 05:57:28;;;;;;;;;;;17.80;99.90;;;;;;5054498;28;19912;-81
2022/07/16 05:59:54;;;;;;;;;;;17.80;99.90;;;;;;5054281;28;19915;-83
2022/07/16 06:02:20;;;;;;;;;;;18.00;99.90;;;;;;5053937;28;19909;-83
2022/07/16 06:04:45;;;;;;;;;;;18.10;99.90;;;;;;5054018;28;19945;-81
2022/07/16 06:07:11;;;;;;;;;;;18.10;99.90;;;;;;5054290;28;19908;-81
2022/07/16 06:09:36;;;;;;;;;;;18.20;99.90;;;;;;5053987;28;19913;-82
2022/07/16 06:12:02;;;;;;;;;;;18.10;99.90;;;;;;5054042;28;19995;-82
2022/07/16 06:14:28;;;;;;;;;;;18.20;99.90;;;;;;5053427;28;19912;-80
2022/07/16 06:16:53;;;;;;;;;;;18.30;99.90;;;;;;5053616;28;19909;-82
2022/07/16 06:19:19;;;;;;;;;;;18.60;99.90;;;;;;5053957;28;20258;-79
2022/07/16 06:21:44;;;;;;;;;;;18.80;99.90;;;;;;5054389;28;19916;-82
2022/07/16 06:24:10;;;;;;;;;;;18.90;99.90;;;;;;5053442;28;19909;-81
2022/07/16 06:26:36;;;;;;;;;;;19.20;99.90;;;;;;5054302;28;19978;-82
2022/07/16 06:29:01;;;;;;;;;;;19.50;99.90;;;;;;5053581;28;19944;-82
2022/07/16 06:31:27;;;;;;;;;;;19.50;99.90;;;;;;5053823;28;19956;-81
2022/07/16 06:33:52;;;;;;;;;;;19.70;99.90;;;;;;5053238;28;19909;-82
2022/07/16 06:36:18;;;;;;;;;;;20.00;99.90;;;;;;5053777;28;19913;-81
2022/07/16 06:38:44;;;;;;;;;;;20.10;99.90;;;;;;5053609;28;19916;-82
2022/07/16 06:41:09;;;;;;;;;;;20.30;99.90;;;;;;5053348;28;19982;-83
2022/07/16 06:43:36;;;;;;;;;;;20.20;99.90;;;;;;5053212;28;19916;-82
2022/07/16 06:46:01;;;;;;;;;;;20.40;99.90;;;;;;5053466;28;19912;-82
2022/07/16 06:48:27;;;;;;;;;;;20.30;97.00;;;;;;5035417;28;19966;-84
2022/07/16 06:50:53;;;;;;;;;;;20.40;98.60;;;;;;5053392;28;19916;-82
2022/07/16 06:53:19;;;;;;;;;;;20.60;98.20;;;;;;5052250;28;19994;-82
2022/07/16 06:55:44;;;;;;;;;;;20.70;95.50;;;;;;5053420;28;20357;-82
2022/07/16 06:58:10;;;;;;;;;;;20.70;93.30;;;;;;5053311;28;20289;-83
2022/07/16 07:00:36;;;;;;;;;;;20.80;94.10;;;;;;5053344;28;19909;-82
2022/07/16 07:03:01;;;;;;;;;;;21.00;93.90;;;;;;5052859;28;19916;-81
2022/07/16 07:05:27;;;;;;;;;;;21.10;92.40;;;;;;5052964;28;19959;-81
2022/07/16 07:07:53;;;;;;;;;;;21.20;92.10;;;;;;5053310;28;19909;-82
2022/07/16 07:10:19;;;;;;;;;;;21.30;90.90;;;;;;5053137;28;19916;-81
2022/07/16 07:12:45;;;;;;;;;;;21.10;90.10;;;;;;5052751;28;19932;-82
2022/07/16 07:15:11;;;;;;;;;;;21.10;90.10;;;;;;5053186;28;19909;-82
2022/07/16 07:17:36;;;;;;;;;;;21.10;90.10;;;;;;5053238;28;19915;-81
2022/07/16 07:20:03;;;;;;;;;;;21.20;90.10;;;;;;5053062;28;19916;-81
2022/07/16 07:22:29;;;;;;;;;;;21.40;89.10;;;;;;5052986;28;19909;-82
2022/07/16 07:24:54;;;;;;;;;;;21.60;89.30;;;;;;5053103;28;19962;-82
2022/07/16 07:27:20;;;;;;;;;;;21.70;87.70;;;;;;5053652;28;20399;-81
2022/07/16 07:29:46;;;;;;;;;;;21.90;85.90;;;;;;5052655;28;20003;-80
2022/07/16 07:32:11;;;;;;;;;;;22.00;86.30;;;;;;5053055;28;20372;-81
2022/07/16 07:34:37;;;;;;;;;;;22.10;87.00;;;;;;5052598;28;19997;-82
2022/07/16 07:37:03;;;;;;;;;;;22.30;83.10;;;;;;5052895;28;20393;-83
2022/07/16 07:39:28;;;;;;;;;;;23.10;78.30;;;;;;5053038;28;20381;-81
2022/07/16 07:41:54;;;;;;;;;;;25.70;70.20;;;;;;5052669;28;19921;-81
2022/07/16 07:44:19;;;;;;;;;;;27.90;62.90;;;;;;5052402;28;19909;-81
2022/07/16 07:46:45;;;;;;;;;;;29.70;57.30;;;;;;5052890;28;20276;-81
2022/07/16 07:49:11;;;;;;;;;;;30.80;54.80;;;;;;5052701;28;19913;-81
2022/07/16 07:51:36;;;;;;;;;;;31.10;52.20;;;;;;5052932;28;19909;-80
2022/07/16 07:54:02;;;;;;;;;;;31.70;50.10;;;;;;5052330;28;20000;-81
2022/07/16 07:56:28;;;;;;;;;;;32.20;49.90;;;;;;5052775;28;19935;-82
2022/07/16 07:58:53;;;;;;;;;;;32.10;48.90;;;;;;5052762;28;19909;-80
2022/07/16 08:01:19;;;;;;;;;;;31.80;48.30;;;;;;5052728;28;19908;-81
2022/07/16 08:03:44;;;;;;;;;;;31.50;47.50;;;;;;5052588;28;20428;-80
2022/07/16 08:06:10;;;;;;;;;;;31.30;48.30;;;;;;5056358;28;19916;-81
2022/07/16 08:08:35;;;;;;;;;;;31.10;48.20;;;;;;5056641;28;19996;-79
2022/07/16 08:11:01;;;;;;;;;;;30.60;48.30;;;;;;5057620;28;20388;-81
2022/07/16 08:13:26;;;;;;;;;;;30.50;48.80;;;;;;5038000;28;19999;-82
2022/07/16 08:15:52;;;;;;;;;;;30.50;48.50;;;;;;5056157;28;19916;-81
2022/07/16 08:18:18;;;;;;;;;;;30.50;49.30;;;;;;5056152;28;20007;-80
2022/07/16 08:20:43;;;;;;;;;;;29.70;49.30;;;;;;5056230;28;19910;-80
2022/07/16 08:23:09;;;;;;;;;;;29.40;49.70;;;;;;5055797;28;19908;-81
2022/07/16 08:25:46;;;;;;;;;;;29.20;50.20;;;;;;5056016;28;20014;-82
2022/07/16 08:28:13;;;;;;;;;;;29.70;49.80;;;;;;5055778;28;19952;-80
2022/07/16 08:30:39;;;;;;;;;;;29.50;49.80;;;;;;5055995;28;19962;-81
2022/07/16 08:33:05;;;;;;;;;;;29.00;50.50;;;;;;5055636;28;19909;-80
2022/07/16 08:35:30;;;;;;;;;;;29.00;50.30;;;;;;5055892;28;19963;-81
2022/07/16 08:37:56;;;;;;;;;;;29.20;50.40;;;;;;5055828;28;19908;-80
2022/07/16 08:40:22;;;;;;;;;;;29.30;50.70;;;;;;5055525;28;20389;-82
2022/07/16 08:42:48;;;;;;;;;;;29.90;49.50;;;;;;5055282;28;20412;-81
2022/07/16 08:45:15;;;;;;;;;;;30.00;49.30;;;;;;5055633;28;19916;-81
2022/07/16 08:47:41;;;;;;;;;;;29.60;48.80;;;;;;5055504;28;19962;-82
2022/07/16 08:50:08;;;;;;;;;;;29.90;49.50;;;;;;5055507;28;19909;-80
2022/07/16 08:52:36;;;;;;;;;;;30.30;48.50;;;;;;5055434;28;19992;-81
2022/07/16 08:55:02;;;;;;;;;;;30.20;48.40;;;;;;5054955;28;19909;-82
2022/07/16 08:57:28;;;;;;;;;;;30.20;48.30;;;;;;5055486;28;20343;-82
2022/07/16 08:59:54;;;;;;;;;;;29.90;48.30;;;;;;5055433;28;20266;-81
2022/07/16 09:02:20;;;;;;;;;;;30.20;48.70;;;;;;5055202;28;19927;-81
2022/07/16 09:04:46;;;;;;;;;;;31.00;47.20;;;;;;5054966;28;19909;-82
2022/07/16 09:07:12;;;;;;;;;;;30.90;47.40;;;;;;5055251;28;19959;-81
2022/07/16 09:09:38;;;;;;;;;;;30.60;47.30;;;;;;5055093;28;20000;-82
2022/07/16 09:12:04;;;;;;;;;;;30.60;46.70;;;;;;5055122;28;19959;-82
2022/07/16 09:14:29;;;;;;;;;;;30.70;47.20;;;;;;5054645;28;19913;-82
2022/07/16 09:16:55;;;;;;;;;;;31.00;47.90;;;;;;5054230;28;20261;-81
2022/07/16 09:19:22;;;;;;;;;;;31.30;46.20;;;;;;5055015;28;19908;-81
2022/07/16 09:22:04;;;;;;;;;;;31.20;46.40;;;;;;5055018;28;19916;-82
2022/07/16 09:24:31;;;;;;;;;;;31.60;46.80;;;;;;5054536;28;19909;-82
2022/07/16 09:27:02;;;;;;;;;;;31.70;46.30;;;;;;5055507;28;19909;-81
2022/07/16 09:29:28;;;;;;;;;;;32.50;46.40;;;;;;5054461;28;19924;-81
2022/07/16 09:31:54;;;;;;;;;;;32.60;45.80;;;;;;5054903;28;19909;-81
2022/07/16 09:34:20;;;;;;;;;;;32.70;45.60;;;;;;5054311;28;19909;-82
2022/07/16 09:36:59;;;;;;;;;;;33.10;45.10;;;;;;5054778;28;19909;-81
2022/07/16 09:39:25;;;;;;;;;;;33.30;44.70;;;;;;5036727;28;19916;-81
2022/07/16 09:41:51;;;;;;;;;;;34.10;44.60;;;;;;5054286;28;19997;-81
2022/07/16 09:44:23;;;;;;;;;;;34.00;43.50;;;;;;5054203;28;20043;-81
2022/07/16 09:46:58;;;;;;;;;;;34.10;43.80;;;;;;5054457;28;19909;-82
2022/07/16 09:49:26;;;;;;;;;;;34.30;43.50;;;;;;5054383;28;19913;-81
2022/07/16 09:51:52;;;;;;;;;;;34.40;42.30;;;;;;5054333;28;20381;-81
2022/07/16 09:54:28;;;;;;;;;;;34.50;42.90;;;;;;5053965;28;19959;-81
2022/07/16 09:57:15;;;;;;;;;;;35.20;42.50;;;;;;5054294;28;19909;-81
2022/07/16 09:59:41;;;;;;;;;;;35.50;42.00;;;;;;5054181;28;20008;-82
2022/07/16 10:02:07;;;;;;;;;;;36.10;41.10;;;;;;5053924;28;19909;-81
2022/07/16 10:04:33;;;;;;;;;;;36.00;40.70;;;;;;5053669;28;20007;-81
2022/07/16 10:06:58;;;;;;;;;;;36.00;40.60;;;;;;5054283;28;19964;-81
2022/07/16 10:09:24;;;;;;;;;;;35.40;40.40;;;;;;5053923;28;19921;-81
2022/07/16 10:11:51;;;;;;;;;;;34.70;40.40;;;;;;5054080;28;19914;-82
2022/07/16 10:14:16;;;;;;;;;;;35.40;40.60;;;;;;5053568;28;19909;-82
2022/07/16 10:16:45;;;;;;;;;;;35.40;40.20;;;;;;5053677;28;20280;-81
2022/07/16 10:19:11;;;;;;;;;;;35.90;40.10;;;;;;5054007;28;20004;-82
2022/07/16 10:21:37;;;;;;;;;;;35.60;38.90;;;;;;5053923;28;20012;-82
2022/07/16 10:24:06;;;;;;;;;;;35.90;39.00;;;;;;5053564;28;19915;-81
2022/07/16 10:26:32;;;;;;;;;;;36.40;38.90;;;;;;5054365;28;20408;-81
2022/07/16 10:28:58;;;;;;;;;;;36.90;38.90;;;;;;5053519;28;20320;-82
2022/07/16 10:31:36;;;;;;;;;;;37.60;38.10;;;;;;5053767;28;19908;-81
2022/07/16 10:34:16;;;;;;;;;;;37.50;37.80;;;;;;5053341;28;19916;-81
2022/07/16 10:36:50;;;;;;;;;;;37.50;37.80;;;;;;5053570;28;20377;-82
2022/07/16 10:39:16;;;;;;;;;;;37.80;37.70;;;;;;5035814;28;19932;-82
2022/07/16 10:41:49;;;;;;;;;;;38.70;35.70;;;;;;5053356;28;20407;-82
2022/07/16 10:44:15;;;;;;;;;;;38.00;35.90;;;;;;5053201;28;20037;-82
2022/07/16 10:46:54;;;;;;;;;;;38.80;36.20;;;;;;5053436;28;20396;-81
2022/07/16 10:49:20;;;;;;;;;;;39.60;35.70;;;;;;5053390;28;19920;-82
2022/07/16 10:51:56;;;;;;;;;;;39.20;35.40;;;;;;5053294;28;19908;-81
2022/07/16 10:54:25;;;;;;;;;;;38.80;35.60;;;;;;5053100;28;20374;-82
2022/07/16 10:56:51;;;;;;;;;;;39.20;35.60;;;;;;5035498;28;19909;-82
2022/07/16 10:59:19;;;;;;;;;;;39.80;35.20;;;;;;5053559;28;19908;-82
2022/07/16 11:01:46;;;;;;;;;;;39.70;34.90;;;;;;5053441;28;19909;-81
2022/07/16 11:04:12;;;;;;;;;;;39.40;34.80;;;;;;5052933;28;20351;-82
2022/07/16 11:06:39;;;;;;;;;;;40.40;34.90;;;;;;5053307;28;19939;-82
2022/07/16 11:09:05;;;;;;;;;;;39.80;33.80;;;;;;5053232;28;19912;-82
2022/07/16 11:11:34;;;;;;;;;;;39.20;34.10;;;;;;5053230;28;19916;-81
2022/07/16 11:14:01;;;;;;;;;;;39.70;34.40;;;;;;5052844;28;20376;-82
2022/07/16 11:16:27;;;;;;;;;;;39.80;34.10;;;;;;5053090;28;19912;-82
2022/07/16 11:18:53;;;;;;;;;;;39.80;34.20;;;;;;5053145;28;19909;-81
2022/07/16 11:21:18;;;;;;;;;;;40.00;33.90;;;;;;5053485;28;19919;-82
2022/07/16 11:23:47;;;;;;;;;;;40.00;34.30;;;;;;5052872;28;19995;-82
2022/07/16 11:26:13;;;;;;;;;;;40.20;34.10;;;;;;5053705;28;20365;-82
2022/07/16 11:28:52;;;;;;;;;;;40.00;34.30;;;;;;5052856;28;19919;-83
2022/07/16 11:31:23;;;;;;;;;;;39.80;34.50;;;;;;5053013;28;19908;-82
2022/07/16 11:33:49;;;;;;;;;;;39.60;34.60;;;;;;5052780;28;19917;-81
2022/07/16 11:36:14;;;;;;;;;;;39.40;34.80;;;;;;5052964;28;19909;-81
2022/07/16 11:38:40;;;;;;;;;;;40.30;34.70;;;;;;5053099;28;20439;-82
2022/07/16 11:41:05;;;;;;;;;;;40.70;33.70;;;;;;5038676;28;19917;-82
2022/07/16 11:43:31;;;;;;;;;;;40.50;34.00;;;;;;5056761;28;19913;-82
2022/07/16 11:45:57;;;;;;;;;;;40.20;33.80;;;;;;5056791;28;19991;-81
2022/07/16 11:48:22;;;;;;;;;;;39.80;34.10;;;;;;5056635;28;19913;-82
2022/07/16 11:50:48;;;;;;;;;;;40.10;34.40;;;;;;5056812;28;20300;-82
2022/07/16 11:53:13;;;;;;;;;;;40.50;34.10;;;;;;5056356;28;19981;-82
2022/07/16 11:55:45;;;;;;;;;;;40.90;34.10;;;;;;5056185;28;19909;-82
2022/07/16 11:58:12;;;;;;;;;;;40.80;33.60;;;;;;5056536;28;19966;-81
2022/07/16 12:00:44;;;;;;;;;;;40.60;33.90;;;;;;5056485;28;19909;-82
2022/07/16 12:03:10;;;;;;;;;;;40.60;33.40;;;;;;5056572;28;19916;-81
2022/07/16 12:05:36;;;;;;;;;;;40.00;33.50;;;;;;5055866;28;19943;-81
2022/07/16 12:08:05;;;;;;;;;;;39.80;33.90;;;;;;5056339;28;20284;-81
2022/07/16 12:10:30;;;;;;;;;;;41.00;33.20;;;;;;5056645;28;19908;-82
2022/07/16 12:13:03;;;;;;;;;;;41.10;33.10;;;;;;5056325;28;19916;-82
2022/07/16 12:15:28;;;;;;;;;;;41.00;33.40;;;;;;5055727;28;19912;-82
2022/07/16 12:17:54;;;;;;;;;;;42.10;33.10;;;;;;5056216;28;20396;-82
2022/07/16 12:20:22;;;;;;;;;;;41.70;32.30;;;;;;5056162;28;19908;-82
2022/07/16 12:23:10;;;;;;;;;;;40.80;32.70;;;;;;5056130;28;19913;-82
2022/07/16 12:25:46;;;;;;;;;;;41.00;33.20;;;;;;5055623;28;19909;-82
2022/07/16 12:28:21;;;;;;;;;;;41.00;33.20;;;;;;5056372;28;19912;-82
2022/07/16 12:30:51;;;;;;;;;;;41.70;33.00;;;;;;5056192;28;19909;-82
2022/07/16 12:33:22;;;;;;;;;;;41.20;32.00;;;;;;5055927;28;19985;-82
2022/07/16 12:35:53;;;;;;;;;;;40.30;32.60;;;;;;5055609;28;19908;-81
2022/07/16 12:38:37;;;;;;;;;;;40.80;32.80;;;;;;5055882;28;19917;-82
2022/07/16 12:41:04;;;;;;;;;;;41.20;32.40;;;;;;5055507;28;20091;-82
2022/07/16 12:43:29;;;;;;;;;;;41.10;32.50;;;;;;5055740;28;19955;-82
2022/07/16 12:45:55;;;;;;;;;;;40.90;32.70;;;;;;5055261;28;19913;-82
2022/07/16 12:48:20;;;;;;;;;;;41.20;32.30;;;;;;5055573;28;19920;-81
2022/07/16 12:50:46;;;;;;;;;;;41.10;32.30;;;;;;5054531;28;19908;-81
2022/07/16 12:53:12;;;;;;;;;;;41.30;32.80;;;;;;5055377;28;19908;-81
2022/07/16 13:01:06;;;;;;;;;;;39.80;33.30;;;;;;5055220;28;19916;-82
2022/07/16 13:03:31;;;;;;;;;;;40.90;32.50;;;;;;5055307;28;19909;-82
2022/07/16 13:05:57;;;;;;;;;;;40.90;32.40;;;;;;5055051;28;19997;-82
2022/07/16 13:08:22;;;;;;;;;;;40.70;32.90;;;;;;5055217;28;20274;-82
2022/07/16 13:10:48;;;;;;;;;;;40.40;32.10;;;;;;5055514;28;20301;-81
2022/07/16 13:13:14;;;;;;;;;;;40.50;32.80;;;;;;5055196;28;20347;-81
2022/07/16 13:15:39;;;;;;;;;;;39.70;33.40;;;;;;5054681;28;19992;-81
2022/07/16 13:18:05;;;;;;;;;;;39.40;33.10;;;;;;5055123;28;19916;-82
2022/07/16 13:20:31;;;;;;;;;;;39.10;33.30;;;;;;5054984;28;19909;-81
2022/07/16 13:22:56;;;;;;;;;;;38.80;33.50;;;;;;5037139;28;20288;-82
2022/07/16 13:25:22;;;;;;;;;;;38.90;33.70;;;;;;5054494;28;19993;-82
2022/07/16 13:27:48;;;;;;;;;;;39.40;33.50;;;;;;5055423;28;19994;-82
2022/07/16 13:30:13;;;;;;;;;;;40.00;33.50;;;;;;5054893;28;19913;-82
2022/07/16 13:32:39;;;;;;;;;;;41.10;33.30;;;;;;5054986;28;19909;-82
2022/07/16 13:35:05;;;;;;;;;;;41.50;33.30;;;;;;5054548;28;19920;-82
2022/07/16 13:37:30;;;;;;;;;;;42.10;32.90;;;;;;5054694;28;19971;-81
2022/07/16 13:39:56;;;;;;;;;;;41.80;32.80;;;;;;5054767;28;19954;-82
2022/07/16 13:42:22;;;;;;;;;;;41.60;32.60;;;;;;5054339;28;20325;-82
2022/07/16 13:44:48;;;;;;;;;;;41.30;32.70;;;;;;5054246;28;19909;-82
2022/07/16 13:47:13;;;;;;;;;;;40.90;32.20;;;;;;5054610;28;19909;-82
2022/07/16 13:49:39;;;;;;;;;;;40.80;31.50;;;;;;5054403;28;20369;-81
2022/07/16 13:52:05;;;;;;;;;;;40.40;32.40;;;;;;5054515;28;19916;-82
2022/07/16 13:54:30;;;;;;;;;;;41.70;32.30;;;;;;5054125;28;20369;-81
2022/07/16 13:58:13;;;;;;;;;;;42.00;31.10;;;;;;5054403;28;19916;-82
2022/07/16 13:59:44;;;;;;;;;;;41.80;31.30;;;;;;5053918;28;19909;-81
2022/07/16 14:02:10;;;;;;;;;;;40.80;31.30;;;;;;5054077;28;19909;-81
2022/07/16 14:04:35;;;;;;;;;;;41.90;31.50;;;;;;5053769;28;19908;-81
2022/07/16 14:07:01;;;;;;;;;;;42.00;30.50;;;;;;5054228;28;19952;-82
2022/07/16 14:09:26;;;;;;;;;;;42.40;31.40;;;;;;5054031;28;19913;-81
2022/07/16 14:11:52;;;;;;;;;;;41.30;32.00;;;;;;5054134;28;19909;-81
2022/07/16 14:14:17;;;;;;;;;;;40.70;32.40;;;;;;5053886;28;20008;-81
2022/07/16 14:16:43;;;;;;;;;;;40.80;32.80;;;;;;5053856;28;20293;-82
2022/07/16 14:19:09;;;;;;;;;;;41.80;32.20;;;;;;5054078;28;19963;-82
2022/07/16 14:21:38;;;;;;;;;;;41.60;32.10;;;;;;5053933;28;19909;-82
2022/07/16 14:24:05;;;;;;;;;;;41.60;31.90;;;;;;5053666;28;20326;-82